LUKK Airport Information

Runway Information
Runway 08 Length 11779 ft width 145 ft
Elevation 399 ft Threshold 0 ft Heading 88
Runway 26 Length 11779 ft Width 145 ft
Elevation 279 ft Threshold 0 ft Heading 268
Airport Frequencies
Type APP Name APP Frequency 125.9 MHZ
Type ATIS Name ATIS Frequency 133.7 MHZ
Type GND Name GND Frequency 121.8 MHZ
Type TWR Name TWR Frequency 118.1 MHZ
Airport Navaids
Type VOR-DME Name Chisinau Frequency 113700 KHZ
Airport Weather Information & NOTAM
ADDS - METARS form results

(2243 UTC 18 February 2019)
Data provider http://aviationweather.gov/metar/data/
 
METAR text: LUKK 182230Z 08005KT 6000 OVC036 04/01 Q1025 R08/120095 NOSIG
Conditions at: LUKK (CHISINAU INTL , MD) observed 2230 UTC 18 February 2019
Temperature: 4.0°C (39°F)
Dewpoint: 1.0°C (34°F) [RH = 81%]
Pressure (altimeter): 30.27 inches Hg (1025.0 mb)
Winds: from the E (80 degrees) at 6 MPH (5 knots; 2.6 m/s)
Visibility: 4 miles ( 6 km)
Ceiling: 3600 feet AGL
Clouds: overcast cloud deck at 3600 feet AGL
Weather: no significant weather observed at this time

METAR text: LUKK 182200Z 07005KT 7000 OVC032 05/02 Q1025 R08/120095 NOSIG
Conditions at: LUKK (CHISINAU INTL , MD) observed 2200 UTC 18 February 2019
Temperature: 5.0°C (41°F)
Dewpoint: 2.0°C (36°F) [RH = 81%]
Pressure (altimeter): 30.27 inches Hg (1025.0 mb)
Winds: from the ENE (70 degrees) at 6 MPH (5 knots; 2.6 m/s)
Visibility: 4 miles ( 7 km)
Ceiling: 3200 feet AGL
Clouds: overcast cloud deck at 3200 feet AGL
Weather: no significant weather observed at this time

Forecast for: LUKK (CHISINAU INTL , MD)
Text: TAF LUKK 181721Z 1818/1918 VRB04KT 9999 BKN030
Forecast period: 1800 UTC 18 February 2019 to 0600 UTC 19 February 2019
Forecast type: FROM: standard forecast or significant change
Winds: variable direction winds at 5 MPH (4 knots; 2.1 m/s)
Visibility: 6 or more miles 10+ km)
Ceiling: 3000 feet AGL
Clouds: broken clouds at 3000 feet AGL
Weather: no significant weather forecast for this period
Text: TEMPO 1900/1906 5000 BR
Forecast period: 0000 to 0600 UTC 19 February 2019
Forecast type: TEMPORARY: The following changes expected for less than half the time period
Visibility: 3 miles (5 km)
Ceiling: unknown
Clouds: missing
Weather: BR  (mist)
Text: BECMG 1906/1908 16010KT
Forecast period: 0600 to 1800 UTC 19 February 2019
Forecast type: BECOMING: Conditions expected to become as follows by 0800 UTC 19 February 2019
Winds: from the SSE (160 degrees) at 12 MPH (10 knots; 5.1 m/s)
Visibility: 6 or more miles 10+ km)
Ceiling: 3000 feet AGL
Clouds: broken clouds at 3000 feet AGL
Weather: no significant weather forecast for this period